sensor_id;sensor_type;location;lat;lon;timestamp;pressure;altitude;pressure_sealevel;temperature;humidity
18985;BME280;9626;52.552;13.436;2023-06-05T00:00:03;101569.03;;;15.44;53.74
18985;BME280;9626;52.552;13.436;2023-06-05T00:02:32;101575.38;;;15.40;52.04
18985;BME280;9626;52.552;13.436;2023-06-05T00:04:58;101573.75;;;15.34;53.36
18985;BME280;9626;52.552;13.436;2023-06-05T00:07:24;101574.69;;;15.32;53.33
18985;BME280;9626;52.552;13.436;2023-06-05T00:09:50;101574.59;;;15.35;54.20
18985;BME280;9626;52.552;13.436;2023-06-05T00:12:16;101576.31;;;15.37;53.47
18985;BME280;9626;52.552;13.436;2023-06-05T00:14:43;101582.97;;;15.21;52.77
18985;BME280;9626;52.552;13.436;2023-06-05T00:17:10;101578.00;;;15.06;53.49
18985;BME280;9626;52.552;13.436;2023-06-05T00:19:36;101578.09;;;15.01;54.12
18985;BME280;9626;52.552;13.436;2023-06-05T00:22:02;101589.63;;;15.03;53.81
18985;BME280;9626;52.552;13.436;2023-06-05T00:24:28;101586.19;;;14.98;53.21
18985;BME280;9626;52.552;13.436;2023-06-05T00:26:54;101587.00;;;15.01;53.64
18985;BME280;9626;52.552;13.436;2023-06-05T00:29:20;101588.13;;;14.91;53.64
18985;BME280;9626;52.552;13.436;2023-06-05T00:31:46;101591.88;;;14.82;53.56
18985;BME280;9626;52.552;13.436;2023-06-05T00:34:13;101590.09;;;14.83;53.75
18985;BME280;9626;52.552;13.436;2023-06-05T00:36:39;101589.91;;;14.91;53.58
18985;BME280;9626;52.552;13.436;2023-06-05T00:39:06;101593.50;;;14.90;53.02
18985;BME280;9626;52.552;13.436;2023-06-05T00:41:32;101582.00;;;14.87;52.95
18985;BME280;9626;52.552;13.436;2023-06-05T00:43:58;101583.00;;;14.83;53.06
18985;BME280;9626;52.552;13.436;2023-06-05T00:46:24;101584.22;;;14.68;53.14
18985;BME280;9626;52.552;13.436;2023-06-05T00:48:50;101576.22;;;14.67;53.46
18985;BME280;9626;52.552;13.436;2023-06-05T00:51:16;101576.34;;;14.61;53.87
18985;BME280;9626;52.552;13.436;2023-06-05T00:53:45;101574.25;;;14.77;53.48
18985;BME280;9626;52.552;13.436;2023-06-05T00:56:12;101575.97;;;14.78;53.68
18985;BME280;9626;52.552;13.436;2023-06-05T00:58:39;101576.78;;;14.81;53.17
18985;BME280;9626;52.552;13.436;2023-06-05T01:01:06;101571.88;;;14.64;53.72
18985;BME280;9626;52.552;13.436;2023-06-05T01:03:36;101575.16;;;14.76;53.32
18985;BME280;9626;52.552;13.436;2023-06-05T01:06:02;101580.34;;;14.82;53.15
18985;BME280;9626;52.552;13.436;2023-06-05T01:08:33;101577.78;;;14.77;53.03
18985;BME280;9626;52.552;13.436;2023-06-05T01:11:26;101569.34;;;14.57;53.99
18985;BME280;9626;52.552;13.436;2023-06-05T01:13:59;101568.59;;;14.50;54.49
18985;BME280;9626;52.552;13.436;2023-06-05T01:16:28;101573.19;;;14.43;54.84
18985;BME280;9626;52.552;13.436;2023-06-05T01:18:59;101570.41;;;14.48;54.91
18985;BME280;9626;52.552;13.436;2023-06-05T01:21:31;101569.34;;;14.57;54.97
18985;BME280;9626;52.552;13.436;2023-06-05T01:23:58;101565.66;;;14.64;54.67
18985;BME280;9626;52.552;13.436;2023-06-05T01:26:37;101565.59;;;14.65;54.26
18985;BME280;9626;52.552;13.436;2023-06-05T01:29:11;101565.59;;;14.65;54.35
18985;BME280;9626;52.552;13.436;2023-06-05T01:31:38;101557.88;;;14.51;54.98
18985;BME280;9626;52.552;13.436;2023-06-05T01:34:08;101560.00;;;14.37;55.40
18985;BME280;9626;52.552;13.436;2023-06-05T01:36:39;101569.00;;;14.30;56.42
18985;BME280;9626;52.552;13.436;2023-06-05T01:39:06;101570.44;;;14.46;56.09
18985;BME280;9626;52.552;13.436;2023-06-05T01:41:34;101564.13;;;14.50;55.60
18985;BME280;9626;52.552;13.436;2023-06-05T01:44:01;101562.41;;;14.49;56.03
18985;BME280;9626;52.552;13.436;2023-06-05T01:46:27;101558.00;;;14.47;56.05
18985;BME280;9626;52.552;13.436;2023-06-05T01:48:53;101563.50;;;14.39;56.28
18985;BME280;9626;52.552;13.436;2023-06-05T01:51:20;101567.78;;;14.46;55.93
18985;BME280;9626;52.552;13.436;2023-06-05T01:53:46;101559.84;;;14.43;55.73
18985;BME280;9626;52.552;13.436;2023-06-05T01:56:15;101567.03;;;14.40;56.37
18985;BME280;9626;52.552;13.436;2023-06-05T01:58:47;101561.88;;;14.32;56.75
18985;BME280;9626;52.552;13.436;2023-06-05T02:01:13;101557.47;;;14.31;56.16
18985;BME280;9626;52.552;13.436;2023-06-05T02:03:42;101555.56;;;14.36;56.22
18985;BME280;9626;52.552;13.436;2023-06-05T02:06:16;101558.41;;;14.28;56.30
18985;BME280;9626;52.552;13.436;2023-06-05T02:08:42;101555.56;;;14.36;56.38
18985;BME280;9626;52.552;13.436;2023-06-05T02:11:08;101558.09;;;14.42;55.96
18985;BME280;9626;52.552;13.436;2023-06-05T02:13:39;101548.38;;;14.41;56.00
18985;BME280;9626;52.552;13.436;2023-06-05T02:16:10;101550.25;;;14.36;56.08
18985;BME280;9626;52.552;13.436;2023-06-05T02:18:36;101549.59;;;14.25;55.66
18985;BME280;9626;52.552;13.436;2023-06-05T02:21:05;101542.53;;;14.24;56.32
18985;BME280;9626;52.552;13.436;2023-06-05T02:23:31;101541.84;;;14.12;55.89
18985;BME280;9626;52.552;13.436;2023-06-05T02:25:57;101534.00;;;14.06;56.71
18985;BME280;9626;52.552;13.436;2023-06-05T02:28:23;101534.97;;;14.02;56.44
18985;BME280;9626;52.552;13.436;2023-06-05T02:30:49;101534.84;;;14.08;55.79
18985;BME280;9626;52.552;13.436;2023-06-05T02:33:15;101530.47;;;14.04;56.41
18985;BME280;9626;52.552;13.436;2023-06-05T02:35:41;101531.28;;;14.09;56.42
18985;BME280;9626;52.552;13.436;2023-06-05T02:38:08;101527.59;;;14.15;55.84
18985;BME280;9626;52.552;13.436;2023-06-05T02:40:35;101529.59;;;14.05;55.65
18985;BME280;9626;52.552;13.436;2023-06-05T02:43:01;101526.03;;;14.06;56.12
18985;BME280;9626;52.552;13.436;2023-06-05T02:45:28;101528.66;;;14.08;56.02
18985;BME280;9626;52.552;13.436;2023-06-05T02:47:54;101525.91;;;14.11;55.69
18985;BME280;9626;52.552;13.436;2023-06-05T02:50:20;101527.63;;;14.13;55.68
18985;BME280;9626;52.552;13.436;2023-06-05T02:52:46;101531.47;;;14.00;55.96
18985;BME280;9626;52.552;13.436;2023-06-05T02:55:12;101532.38;;;13.97;55.86
18985;BME280;9626;52.552;13.436;2023-06-05T02:57:38;101527.63;;;14.13;56.23
18985;BME280;9626;52.552;13.436;2023-06-05T03:00:09;101528.75;;;14.03;56.29
18985;BME280;9626;52.552;13.436;2023-06-05T03:02:35;101530.44;;;14.06;56.31
18985;BME280;9626;52.552;13.436;2023-06-05T03:05:04;101532.13;;;14.11;56.00
18985;BME280;9626;52.552;13.436;2023-06-05T03:07:30;101526.69;;;14.16;55.83
18985;BME280;9626;52.552;13.436;2023-06-05T03:10:00;101530.31;;;14.13;55.88
18985;BME280;9626;52.552;13.436;2023-06-05T03:12:27;101527.44;;;14.23;55.28
18985;BME280;9626;52.552;13.436;2023-06-05T03:14:53;101532.91;;;14.15;55.11
18985;BME280;9626;52.552;13.436;2023-06-05T03:17:19;101531.28;;;14.09;55.83
18985;BME280;9626;52.552;13.436;2023-06-05T03:19:46;101531.34;;;14.06;56.17
18985;BME280;9626;52.552;13.436;2023-06-05T03:22:12;101534.16;;;13.98;56.92
18985;BME280;9626;52.552;13.436;2023-06-05T03:24:38;101528.25;;;13.82;57.90
18985;BME280;9626;52.552;13.436;2023-06-05T03:27:04;101533.81;;;13.70;58.74
18985;BME280;9626;52.552;13.436;2023-06-05T03:29:30;101530.19;;;13.74;58.59
18985;BME280;9626;52.552;13.436;2023-06-05T03:31:56;101526.88;;;13.63;58.63
18985;BME280;9626;52.552;13.436;2023-06-05T03:34:22;101520.16;;;13.43;59.96
18985;BME280;9626;52.552;13.436;2023-06-05T03:36:52;101525.47;;;13.43;60.13
18985;BME280;9626;52.552;13.436;2023-06-05T03:39:18;101521.91;;;13.44;60.00
18985;BME280;9626;52.552;13.436;2023-06-05T03:41:44;101525.25;;;13.56;60.47
18985;BME280;9626;52.552;13.436;2023-06-05T03:44:10;101531.31;;;13.62;59.39
18985;BME280;9626;52.552;13.436;2023-06-05T03:46:36;101531.28;;;13.64;59.81
18985;BME280;9626;52.552;13.436;2023-06-05T03:49:03;101527.75;;;13.62;59.94
18985;BME280;9626;52.552;13.436;2023-06-05T03:51:34;101529.88;;;13.43;61.26
18985;BME280;9626;52.552;13.436;2023-06-05T03:54:02;101523.81;;;13.36;62.17
18985;BME280;9626;52.552;13.436;2023-06-05T03:56:29;101522.38;;;13.15;63.16
18985;BME280;9626;52.552;13.436;2023-06-05T03:59:00;101529.63;;;13.05;64.36
18985;BME280;9626;52.552;13.436;2023-06-05T04:01:35;101530.47;;;13.07;63.51
18985;BME280;9626;52.552;13.436;2023-06-05T04:04:03;101526.94;;;13.08;64.07
18985;BME280;9626;52.552;13.436;2023-06-05T04:06:31;101524.97;;;13.18;64.01
18985;BME280;9626;52.552;13.436;2023-06-05T04:09:02;101524.66;;;13.38;62.83
18985;BME280;9626;52.552;13.436;2023-06-05T04:11:37;101534.13;;;13.55;61.37
18985;BME280;9626;52.552;13.436;2023-06-05T04:14:03;101530.41;;;13.65;61.39
18985;BME280;9626;52.552;13.436;2023-06-05T04:16:29;101529.78;;;13.49;62.70
18985;BME280;9626;52.552;13.436;2023-06-05T04:18:56;101530.75;;;13.45;63.30
18985;BME280;9626;52.552;13.436;2023-06-05T04:21:22;101535.50;;;13.26;64.14
18985;BME280;9626;52.552;13.436;2023-06-05T04:23:48;101543.47;;;13.26;65.36
18985;BME280;9626;52.552;13.436;2023-06-05T04:26:14;101541.63;;;13.31;65.39
18985;BME280;9626;52.552;13.436;2023-06-05T04:28:41;101548.78;;;13.26;66.65
18985;BME280;9626;52.552;13.436;2023-06-05T04:31:08;101545.09;;;13.33;67.01
18985;BME280;9626;52.552;13.436;2023-06-05T04:33:34;101540.22;;;13.61;66.00
18985;BME280;9626;52.552;13.436;2023-06-05T04:36:00;101539.09;;;13.73;63.38
18985;BME280;9626;52.552;13.436;2023-06-05T04:38:26;101530.97;;;13.79;62.69
18985;BME280;9626;52.552;13.436;2023-06-05T04:40:51;101541.59;;;13.81;62.78
18985;BME280;9626;52.552;13.436;2023-06-05T04:43:18;101538.88;;;13.85;63.46
18985;BME280;9626;52.552;13.436;2023-06-05T04:45:44;101537.00;;;13.91;63.34
18985;BME280;9626;52.552;13.436;2023-06-05T04:48:11;101543.88;;;14.01;61.75
18985;BME280;9626;52.552;13.436;2023-06-05T04:50:37;101538.69;;;13.95;62.82
18985;BME280;9626;52.552;13.436;2023-06-05T04:53:03;101541.41;;;13.90;63.05
18985;BME280;9626;52.552;13.436;2023-06-05T04:55:29;101539.75;;;13.84;61.96
18985;BME280;9626;52.552;13.436;2023-06-05T04:57:55;101531.78;;;13.84;61.59
18985;BME280;9626;52.552;13.436;2023-06-05T05:00:27;101535.16;;;13.93;61.39
18985;BME280;9626;52.552;13.436;2023-06-05T05:02:53;101529.72;;;13.97;60.74
18985;BME280;9626;52.552;13.436;2023-06-05T05:05:19;101527.88;;;14.01;59.06
18985;BME280;9626;52.552;13.436;2023-06-05T05:07:45;101531.34;;;14.06;59.80
18985;BME280;9626;52.552;13.436;2023-06-05T05:10:13;101530.34;;;14.12;58.62
18985;BME280;9626;52.552;13.436;2023-06-05T05:12:40;101531.09;;;14.18;58.09
18985;BME280;9626;52.552;13.436;2023-06-05T05:15:06;101539.66;;;14.33;59.56
18985;BME280;9626;52.552;13.436;2023-06-05T05:17:33;101536.63;;;14.50;59.22
18985;BME280;9626;52.552;13.436;2023-06-05T05:19:59;101533.53;;;14.70;60.05
18985;BME280;9626;52.552;13.436;2023-06-05T05:22:26;101535.00;;;14.83;58.74
18985;BME280;9626;52.552;13.436;2023-06-05T05:24:52;101532.84;;;14.98;58.74
18985;BME280;9626;52.552;13.436;2023-06-05T05:27:18;101531.75;;;15.07;58.27
18985;BME280;9626;52.552;13.436;2023-06-05T05:29:44;101534.22;;;15.14;57.03
18985;BME280;9626;52.552;13.436;2023-06-05T05:32:10;101534.19;;;15.16;56.71
18985;BME280;9626;52.552;13.436;2023-06-05T05:34:36;101537.78;;;15.13;55.42
18985;BME280;9626;52.552;13.436;2023-06-05T05:37:03;101543.84;;;15.21;56.51
18985;BME280;9626;52.552;13.436;2023-06-05T05:39:29;101546.34;;;15.28;56.04
18985;BME280;9626;52.552;13.436;2023-06-05T05:41:55;101548.91;;;15.31;57.08
18985;BME280;9626;52.552;13.436;2023-06-05T05:44:21;101547.00;;;15.36;57.79
18985;BME280;9626;52.552;13.436;2023-06-05T05:46:47;101550.50;;;15.40;57.85
18985;BME280;9626;52.552;13.436;2023-06-05T05:49:13;101545.88;;;15.46;57.32
18985;BME280;9626;52.552;13.436;2023-06-05T05:51:39;101551.91;;;15.53;57.32
18985;BME280;9626;52.552;13.436;2023-06-05T05:54:06;101556.28;;;15.55;56.08
18985;BME280;9626;52.552;13.436;2023-06-05T05:56:32;101559.84;;;15.56;55.19
18985;BME280;9626;52.552;13.436;2023-06-05T05:58:59;101549.03;;;15.61;55.17
18985;BME280;9626;52.552;13.436;2023-06-05T06:01:26;101562.31;;;15.64;53.86
18985;BME280;9626;52.552;13.436;2023-06-05T06:03:53;101567.47;;;15.70;54.67
18985;BME280;9626;52.552;13.436;2023-06-05T06:06:20;101566.25;;;15.83;54.44
18985;BME280;9626;52.552;13.436;2023-06-05T06:08:46;101557.78;;;15.99;56.49
18985;BME280;9626;52.552;13.436;2023-06-05T06:11:12;101564.53;;;16.12;54.74
18985;BME280;9626;52.552;13.436;2023-06-05T06:13:38;101572.41;;;16.18;53.58
18985;BME280;9626;52.552;13.436;2023-06-05T06:16:04;101571.28;;;16.26;51.67
18985;BME280;9626;52.552;13.436;2023-06-05T06:18:31;101578.94;;;16.38;52.06
18985;BME280;9626;52.552;13.436;2023-06-05T06:20:57;101568.78;;;16.49;52.53
18985;BME280;9626;52.552;13.436;2023-06-05T06:23:24;101581.09;;;16.55;53.09
18985;BME280;9626;52.552;13.436;2023-06-05T06:25:50;101572.84;;;16.63;51.14
18985;BME280;9626;52.552;13.436;2023-06-05T06:28:18;101571.72;;;16.70;52.45
18985;BME280;9626;52.552;13.436;2023-06-05T06:30:45;101574.22;;;16.76;51.19
18985;BME280;9626;52.552;13.436;2023-06-05T06:33:11;101582.00;;;16.84;51.78
18985;BME280;9626;52.552;13.436;2023-06-05T06:35:37;101579.94;;;16.94;51.96
18985;BME280;9626;52.552;13.436;2023-06-05T06:38:03;101576.88;;;17.06;51.94
18985;BME280;9626;52.552;13.436;2023-06-05T06:40:29;101576.63;;;17.12;52.40
18985;BME280;9626;52.552;13.436;2023-06-05T06:42:55;101578.22;;;17.19;52.42
18985;BME280;9626;52.552;13.436;2023-06-05T06:45:21;101581.81;;;17.18;50.58
18985;BME280;9626;52.552;13.436;2023-06-05T06:47:47;101578.81;;;17.28;49.59
18985;BME280;9626;52.552;13.436;2023-06-05T06:50:13;101586.44;;;17.40;49.28
18985;BME280;9626;52.552;13.436;2023-06-05T06:52:40;101586.13;;;17.49;49.87
18985;BME280;9626;52.552;13.436;2023-06-05T06:55:06;101582.38;;;17.55;49.51
18985;BME280;9626;52.552;13.436;2023-06-05T06:57:33;101590.03;;;17.66;49.73
18985;BME280;9626;52.552;13.436;2023-06-05T06:59:59;101590.63;;;17.74;48.75
18985;BME280;9626;52.552;13.436;2023-06-05T07:02:25;101584.13;;;17.81;48.00
18985;BME280;9626;52.552;13.436;2023-06-05T07:04:51;101586.66;;;17.84;48.08
18985;BME280;9626;52.552;13.436;2023-06-05T07:07:19;101579.47;;;17.86;49.02
18985;BME280;9626;52.552;13.436;2023-06-05T07:09:48;101583.56;;;17.97;48.69
18985;BME280;9626;52.552;13.436;2023-06-05T07:12:15;101578.72;;;18.08;48.21
18985;BME280;9626;52.552;13.436;2023-06-05T07:14:42;101578.13;;;18.23;47.36
18985;BME280;9626;52.552;13.436;2023-06-05T07:17:08;101579.56;;;18.34;47.07
18985;BME280;9626;52.552;13.436;2023-06-05T07:19:35;101579.63;;;18.31;47.29
18985;BME280;9626;52.552;13.436;2023-06-05T07:22:05;101584.44;;;18.46;45.55
18985;BME280;9626;52.552;13.436;2023-06-05T07:24:33;101583.00;;;18.59;45.99
18985;BME280;9626;52.552;13.436;2023-06-05T07:27:02;101579.53;;;18.57;45.94
18985;BME280;9626;52.552;13.436;2023-06-05T07:29:28;101582.78;;;18.66;46.37
18985;BME280;9626;52.552;13.436;2023-06-05T07:31:56;101576.22;;;18.73;45.27
18985;BME280;9626;52.552;13.436;2023-06-05T07:34:23;101584.28;;;18.97;44.61
18985;BME280;9626;52.552;13.436;2023-06-05T07:36:50;101578.78;;;19.00;44.64
18985;BME280;9626;52.552;13.436;2023-06-05T07:39:19;101579.00;;;18.94;44.79
18985;BME280;9626;52.552;13.436;2023-06-05T07:41:45;101579.47;;;19.05;45.08
18985;BME280;9626;52.552;13.436;2023-06-05T07:44:15;101584.75;;;19.06;45.09
18985;BME280;9626;52.552;13.436;2023-06-05T07:46:45;101582.81;;;19.10;44.57
18985;BME280;9626;52.552;13.436;2023-06-05T07:49:12;101582.31;;;19.22;43.76
18985;BME280;9626;52.552;13.436;2023-06-05T07:51:39;101579.56;;;19.24;44.06
18985;BME280;9626;52.552;13.436;2023-06-05T07:54:10;101580.97;;;19.33;44.47
18985;BME280;9626;52.552;13.436;2023-06-05T07:56:37;101579.22;;;19.32;43.18
18985;BME280;9626;52.552;13.436;2023-06-05T07:59:04;101579.50;;;19.25;43.36
18985;BME280;9626;52.552;13.436;2023-06-05T08:01:32;101585.97;;;19.42;42.53
18985;BME280;9626;52.552;13.436;2023-06-05T08:04:05;101580.66;;;19.61;41.79
18985;BME280;9626;52.552;13.436;2023-06-05T08:06:32;101581.22;;;19.69;41.35
18985;BME280;9626;52.552;13.436;2023-06-05T08:08:59;101583.59;;;19.75;41.33
18985;BME280;9626;52.552;13.436;2023-06-05T08:11:25;101576.50;;;19.74;41.31
18985;BME280;9626;52.552;13.436;2023-06-05T08:13:52;101573.59;;;19.79;41.75
18985;BME280;9626;52.552;13.436;2023-06-05T08:16:18;101577.53;;;19.72;41.68
18985;BME280;9626;52.552;13.436;2023-06-05T08:18:44;101568.53;;;19.73;41.48
18985;BME280;9626;52.552;13.436;2023-06-05T08:21:10;101575.63;;;19.74;40.11
18985;BME280;9626;52.552;13.436;2023-06-05T08:23:37;101574.19;;;19.87;40.30
18985;BME280;9626;52.552;13.436;2023-06-05T08:26:03;101564.97;;;19.93;39.34
18985;BME280;9626;52.552;13.436;2023-06-05T08:28:40;101573.28;;;20.07;40.34
18985;BME280;9626;52.552;13.436;2023-06-05T08:31:07;101570.81;;;20.41;40.16
18985;BME280;9626;52.552;13.436;2023-06-05T08:33:34;101565.75;;;20.54;38.44
18985;BME280;9626;52.552;13.436;2023-06-05T08:36:00;101562.75;;;20.79;37.73
18985;BME280;9626;52.552;13.436;2023-06-05T08:38:28;101561.38;;;20.89;38.71
18985;BME280;9626;52.552;13.436;2023-06-05T08:40:56;101559.81;;;21.03;36.77
18985;BME280;9626;52.552;13.436;2023-06-05T08:43:25;101561.56;;;21.21;36.76
18985;BME280;9626;52.552;13.436;2023-06-05T08:45:52;101554.63;;;21.35;35.55
18985;BME280;9626;52.552;13.436;2023-06-05T08:48:21;101560.69;;;21.57;35.89
18985;BME280;9626;52.552;13.436;2023-06-05T08:50:48;101558.66;;;21.78;36.28
18985;BME280;9626;52.552;13.436;2023-06-05T08:53:17;101560.78;;;21.89;35.46
18985;BME280;9626;52.552;13.436;2023-06-05T08:55:49;101555.53;;;22.04;35.61
18985;BME280;9626;52.552;13.436;2023-06-05T08:58:16;101557.44;;;22.35;35.17
18985;BME280;9626;52.552;13.436;2023-06-05T09:00:42;101556.97;;;22.27;35.15
18985;BME280;9626;52.552;13.436;2023-06-05T09:03:10;101553.88;;;22.67;34.48
18985;BME280;9626;52.552;13.436;2023-06-05T09:05:38;101543.00;;;22.52;34.47
18985;BME280;9626;52.552;13.436;2023-06-05T09:08:04;101548.75;;;22.62;33.42
18985;BME280;9626;52.552;13.436;2023-06-05T09:10:31;101550.50;;;23.09;33.55
18985;BME280;9626;52.552;13.436;2023-06-05T09:12:58;101549.47;;;23.28;33.11
18985;BME280;9626;52.552;13.436;2023-06-05T09:15:30;101553.94;;;23.43;32.83
18985;BME280;9626;52.552;13.436;2023-06-05T09:18:06;101543.81;;;23.47;32.34
18985;BME280;9626;52.552;13.436;2023-06-05T09:20:35;101546.91;;;23.55;33.31
18985;BME280;9626;52.552;13.436;2023-06-05T09:23:02;101546.22;;;23.52;33.83
18985;BME280;9626;52.552;13.436;2023-06-05T09:25:45;101550.50;;;23.25;32.81
18985;BME280;9626;52.552;13.436;2023-06-05T09:28:14;101546.66;;;23.29;32.83
18985;BME280;9626;52.552;13.436;2023-06-05T09:31:02;101551.81;;;23.34;32.89
18985;BME280;9626;52.552;13.436;2023-06-05T09:33:31;101549.66;;;23.25;32.07
18985;BME280;9626;52.552;13.436;2023-06-05T09:36:06;101548.28;;;23.02;32.16
18985;BME280;9626;52.552;13.436;2023-06-05T09:38:33;101549.41;;;22.98;32.75
18985;BME280;9626;52.552;13.436;2023-06-05T09:41:06;101546.53;;;23.01;32.51
18985;BME280;9626;52.552;13.436;2023-06-05T09:43:33;101548.09;;;23.21;32.21
18985;BME280;9626;52.552;13.436;2023-06-05T09:46:06;101541.50;;;23.55;33.72
18985;BME280;9626;52.552;13.436;2023-06-05T09:48:32;101532.13;;;23.16;33.04
18985;BME280;9626;52.552;13.436;2023-06-05T09:51:16;101525.88;;;23.16;32.95
18985;BME280;9626;52.552;13.436;2023-06-05T09:53:44;101531.69;;;23.08;33.13
18985;BME280;9626;52.552;13.436;2023-06-05T09:56:15;101530.66;;;22.94;32.75
18985;BME280;9626;52.552;13.436;2023-06-05T09:58:46;101526.69;;;22.86;32.98
18985;BME280;9626;52.552;13.436;2023-06-05T10:01:15;101520.59;;;22.82;34.20
18985;BME280;9626;52.552;13.436;2023-06-05T10:03:44;101513.81;;;22.59;37.82
18985;BME280;9626;52.552;13.436;2023-06-05T10:06:14;101513.50;;;22.49;34.86
18985;BME280;9626;52.552;13.436;2023-06-05T10:08:42;101514.09;;;22.54;33.20
18985;BME280;9626;52.552;13.436;2023-06-05T10:11:09;101516.25;;;22.79;34.24
18985;BME280;9626;52.552;13.436;2023-06-05T10:13:36;101509.84;;;22.50;36.24
18985;BME280;9626;52.552;13.436;2023-06-05T10:16:02;101508.69;;;22.38;37.90
18985;BME280;9626;52.552;13.436;2023-06-05T10:18:28;101506.19;;;22.35;37.75
18985;BME280;9626;52.552;13.436;2023-06-05T10:20:55;101497.97;;;22.05;38.06
18985;BME280;9626;52.552;13.436;2023-06-05T10:23:24;101506.00;;;21.89;36.92
18985;BME280;9626;52.552;13.436;2023-06-05T10:25:52;101497.44;;;21.98;37.44
18985;BME280;9626;52.552;13.436;2023-06-05T10:31:16;101498.84;;;22.21;36.66
18985;BME280;9626;52.552;13.436;2023-06-05T10:36:27;101492.34;;;22.41;37.27
18985;BME280;9626;52.552;13.436;2023-06-05T10:38:58;101480.19;;;22.17;35.33
18985;BME280;9626;52.552;13.436;2023-06-05T10:41:26;101480.41;;;22.29;33.14
18985;BME280;9626;52.552;13.436;2023-06-05T10:43:52;101481.34;;;22.28;36.58
18985;BME280;9626;52.552;13.436;2023-06-05T10:46:35;101478.72;;;22.11;37.21
18985;BME280;9626;52.552;13.436;2023-06-05T10:54:07;101481.84;;;21.87;35.75
18985;BME280;9626;52.552;13.436;2023-06-05T10:59:19;101479.19;;;22.03;35.51
18985;BME280;9626;52.552;13.436;2023-06-05T11:07:21;101480.50;;;22.90;31.91
18985;BME280;9626;52.552;13.436;2023-06-05T11:17:39;101468.03;;;22.25;33.33
18985;BME280;9626;52.552;13.436;2023-06-05T11:20:06;101460.38;;;22.18;37.50
18985;BME280;9626;52.552;13.436;2023-06-05T11:28:06;101466.16;;;21.78;35.33
18985;BME280;9626;52.552;13.436;2023-06-05T11:30:41;101458.06;;;21.78;36.61
18985;BME280;9626;52.552;13.436;2023-06-05T11:33:13;101460.81;;;21.60;37.59
18985;BME280;9626;52.552;13.436;2023-06-05T11:35:43;101454.09;;;22.01;33.99
18985;BME280;9626;52.552;13.436;2023-06-05T11:38:10;101455.50;;;21.92;37.45
18985;BME280;9626;52.552;13.436;2023-06-05T11:40:37;101442.97;;;21.91;34.42
18985;BME280;9626;52.552;13.436;2023-06-05T11:43:06;101445.94;;;22.03;36.64
18985;BME280;9626;52.552;13.436;2023-06-05T11:45:33;101448.63;;;22.67;34.37
18985;BME280;9626;52.552;13.436;2023-06-05T11:48:11;101451.06;;;23.02;32.48
18985;BME280;9626;52.552;13.436;2023-06-05T11:53:17;101434.22;;;22.36;36.59
18985;BME280;9626;52.552;13.436;2023-06-05T11:55:44;101434.47;;;21.99;36.72
18985;BME280;9626;52.552;13.436;2023-06-05T11:58:23;101440.00;;;21.96;37.14
18985;BME280;9626;52.552;13.436;2023-06-05T12:00:50;101433.56;;;21.99;35.75
18985;BME280;9626;52.552;13.436;2023-06-05T12:03:18;101430.63;;;22.19;35.97
18985;BME280;9626;52.552;13.436;2023-06-05T12:05:45;101430.66;;;22.03;34.55
18985;BME280;9626;52.552;13.436;2023-06-05T12:08:28;101428.00;;;22.02;36.47
18985;BME280;9626;52.552;13.436;2023-06-05T12:10:56;101426.19;;;22.18;35.35
18985;BME280;9626;52.552;13.436;2023-06-05T12:13:22;101430.28;;;22.09;36.17
18985;BME280;9626;52.552;13.436;2023-06-05T12:15:58;101432.03;;;22.10;36.27
18985;BME280;9626;52.552;13.436;2023-06-05T12:18:32;101431.69;;;22.49;35.86
18985;BME280;9626;52.552;13.436;2023-06-05T12:20:59;101429.56;;;23.00;32.18
18985;BME280;9626;52.552;13.436;2023-06-05T12:23:27;101419.75;;;23.13;33.75
18985;BME280;9626;52.552;13.436;2023-06-05T12:26:03;101418.41;;;22.76;34.47
18985;BME280;9626;52.552;13.436;2023-06-05T12:28:30;101414.09;;;22.41;35.91
18985;BME280;9626;52.552;13.436;2023-06-05T12:30:57;101411.78;;;22.66;32.18
18985;BME280;9626;52.552;13.436;2023-06-05T12:33:24;101418.00;;;22.82;33.17
18985;BME280;9626;52.552;13.436;2023-06-05T12:36:06;101399.13;;;22.36;35.85
18985;BME280;9626;52.552;13.436;2023-06-05T12:38:40;101400.25;;;22.32;35.26
18985;BME280;9626;52.552;13.436;2023-06-05T12:41:07;101402.28;;;22.28;34.92
18985;BME280;9626;52.552;13.436;2023-06-05T12:43:34;101394.63;;;22.20;35.44
18985;BME280;9626;52.552;13.436;2023-06-05T12:46:00;101390.59;;;22.27;35.74
18985;BME280;9626;52.552;13.436;2023-06-05T12:48:27;101398.63;;;22.75;34.21
18985;BME280;9626;52.552;13.436;2023-06-05T12:50:53;101390.59;;;22.59;34.94
18985;BME280;9626;52.552;13.436;2023-06-05T12:53:22;101399.44;;;22.61;34.00
18985;BME280;9626;52.552;13.436;2023-06-05T12:55:48;101398.41;;;22.64;33.70
18985;BME280;9626;52.552;13.436;2023-06-05T12:58:14;101390.13;;;22.98;32.66
18985;BME280;9626;52.552;13.436;2023-06-05T13:00:40;101386.13;;;23.34;31.26
18985;BME280;9626;52.552;13.436;2023-06-05T13:03:07;101376.84;;;23.38;31.10
18985;BME280;9626;52.552;13.436;2023-06-05T13:05:34;101370.84;;;23.33;31.91
18985;BME280;9626;52.552;13.436;2023-06-05T13:08:01;101372.50;;;22.76;35.19
18985;BME280;9626;52.552;13.436;2023-06-05T13:10:27;101369.88;;;22.44;35.51
18985;BME280;9626;52.552;13.436;2023-06-05T13:12:54;101362.63;;;23.05;32.06
18985;BME280;9626;52.552;13.436;2023-06-05T13:15:20;101364.22;;;23.53;31.40
18985;BME280;9626;52.552;13.436;2023-06-05T13:17:46;101353.16;;;22.98;33.97
18985;BME280;9626;52.552;13.436;2023-06-05T13:20:13;101358.31;;;23.17;33.51
18985;BME280;9626;52.552;13.436;2023-06-05T13:22:40;101354.97;;;22.69;34.08
18985;BME280;9626;52.552;13.436;2023-06-05T13:25:07;101361.03;;;22.42;35.69
18985;BME280;9626;52.552;13.436;2023-06-05T13:27:34;101362.03;;;22.55;33.21